createdAt,value
2019-04-07T00:01:57.264Z,6.51
2019-04-07T00:04:25.518Z,6.43
2019-04-07T00:06:53.464Z,6.44
2019-04-07T00:09:21.332Z,6.46
2019-04-07T00:11:49.706Z,6.43
2019-04-07T00:14:18.064Z,6.31
2019-04-07T00:16:46.054Z,6.31
2019-04-07T00:19:13.926Z,6.35
2019-04-07T00:21:42.334Z,6.31
2019-04-07T00:24:10.261Z,6.29
2019-04-07T00:26:38.136Z,6.21
2019-04-07T00:29:06.108Z,6.18
2019-04-07T00:31:33.861Z,6.12
2019-04-07T00:34:01.829Z,6.08
2019-04-07T00:36:29.805Z,6.09
2019-04-07T00:38:57.765Z,6.11
2019-04-07T00:41:25.637Z,6.09
2019-04-07T00:43:53.409Z,5.97
2019-04-07T00:46:21.835Z,6.00
2019-04-07T00:48:49.845Z,5.95
2019-04-07T00:51:17.922Z,5.90
2019-04-07T00:53:46.389Z,5.93
2019-04-07T00:56:14.626Z,5.88
2019-04-07T00:58:42.646Z,5.87
2019-04-07T01:01:12.194Z,5.84
2019-04-07T01:03:40.322Z,5.90
2019-04-07T01:06:08.684Z,5.91
2019-04-07T01:08:37.229Z,5.86
2019-04-07T01:11:05.649Z,5.84
2019-04-07T01:13:33.935Z,5.78
2019-04-07T01:16:01.699Z,5.78
2019-04-07T01:18:32.673Z,5.67
2019-04-07T01:21:00.609Z,5.65
2019-04-07T01:23:28.373Z,5.65
2019-04-07T01:25:56.442Z,5.63
2019-04-07T01:28:24.413Z,5.65
2019-04-07T01:30:53.406Z,5.67
2019-04-07T01:33:21.772Z,5.60
2019-04-07T01:35:50.416Z,5.65
2019-04-07T01:38:18.537Z,5.53
2019-04-07T01:40:50.903Z,5.55
2019-04-07T01:43:26.629Z,5.53
2019-04-07T01:46:13.054Z,5.51
2019-04-07T01:48:55.266Z,5.47
2019-04-07T01:51:42.691Z,5.45
2019-04-07T01:54:28.358Z,5.49
2019-04-07T01:57:01.365Z,5.49
2019-04-07T01:59:34.401Z,5.47
2019-04-07T02:02:04.682Z,5.46
2019-04-07T02:04:37.495Z,5.42
2019-04-07T02:07:09.915Z,5.39
2019-04-07T02:09:56.513Z,5.46
2019-04-07T02:12:43.888Z,5.41
2019-04-07T02:15:13.963Z,5.33
2019-04-07T02:17:43.881Z,5.32
2019-04-07T02:20:57.595Z,5.33
2019-04-07T02:23:28.204Z,5.36
2019-04-07T02:26:04.107Z,5.36
2019-04-07T02:28:51.101Z,5.30
2019-04-07T02:31:40.068Z,5.30
2019-04-07T02:34:13.499Z,5.29
2019-04-07T02:36:49.936Z,5.26
2019-04-07T02:39:36.841Z,5.30
2019-04-07T02:42:06.970Z,5.21
2019-04-07T02:44:40.812Z,5.22
2019-04-07T02:47:28.005Z,5.19
2019-04-07T02:50:07.295Z,5.16
2019-04-07T02:52:38.934Z,5.18
2019-04-07T02:55:18.423Z,5.19
2019-04-07T02:57:56.931Z,5.20
2019-04-07T03:00:29.761Z,5.11
2019-04-07T03:03:03.412Z,5.12
2019-04-07T03:05:38.863Z,5.07
2019-04-07T03:08:27.019Z,5.05
2019-04-07T03:11:09.655Z,4.91
2019-04-07T03:13:55.199Z,4.98
2019-04-07T03:16:31.975Z,4.90
2019-04-07T03:19:04.960Z,4.93
2019-04-07T03:21:46.895Z,4.96
2019-04-07T03:24:26.547Z,4.92
2019-04-07T03:26:56.602Z,4.93
2019-04-07T03:29:26.931Z,4.88
2019-04-07T03:31:59.735Z,4.90
2019-04-07T03:34:31.367Z,4.98
2019-04-07T03:37:32.424Z,4.95
2019-04-07T03:39:31.897Z,4.91
2019-04-07T03:42:01.729Z,4.98
2019-04-07T03:44:34.422Z,5.04
2019-04-07T03:47:04.425Z,5.05
2019-04-07T03:49:35.140Z,5.06
2019-04-07T03:52:05.859Z,5.17
2019-04-07T03:54:53.008Z,5.17
2019-04-07T03:57:24.140Z,5.24
2019-04-07T03:59:54.376Z,5.35
2019-04-07T04:02:39.648Z,5.42
2019-04-07T04:05:10.570Z,5.36
2019-04-07T04:07:40.509Z,5.44
2019-04-07T04:10:10.621Z,5.53
2019-04-07T04:12:41.609Z,5.63
2019-04-07T04:15:11.996Z,5.75
2019-04-07T04:17:39.746Z,5.83
2019-04-07T04:20:08.367Z,5.91
2019-04-07T04:22:36.135Z,6.02
2019-04-07T04:25:05.605Z,6.01
2019-04-07T04:27:34.218Z,6.11
2019-04-07T04:30:05.146Z,6.15
2019-04-07T04:32:33.288Z,6.50
2019-04-07T04:35:01.414Z,6.48
2019-04-07T04:37:39.864Z,6.48
2019-04-07T04:39:59.818Z,6.68
2019-04-07T04:42:28.872Z,6.73
2019-04-07T04:44:56.713Z,6.94
2019-04-07T04:47:25.704Z,7.08
2019-04-07T04:49:53.775Z,7.25
2019-04-07T04:52:22.023Z,7.36
2019-04-07T04:54:50.545Z,7.41
2019-04-07T04:57:19.917Z,7.82
2019-04-07T04:59:48.513Z,8.06
2019-04-07T05:02:17.166Z,8.24
2019-04-07T05:04:45.868Z,8.31
2019-04-07T05:07:13.955Z,8.20
2019-04-07T05:09:48.784Z,8.25
2019-04-07T05:12:12.778Z,8.03
2019-04-07T05:14:41.259Z,8.12
2019-04-07T05:17:09.986Z,8.11
2019-04-07T05:19:37.788Z,8.28
2019-04-07T05:22:06.001Z,8.74
2019-04-07T05:24:35.067Z,8.67
2019-04-07T05:27:03.337Z,9.03
2019-04-07T05:29:31.205Z,9.03
2019-04-07T05:31:59.274Z,8.94
2019-04-07T05:34:27.895Z,8.90
2019-04-07T05:36:56.213Z,8.90
2019-04-07T05:39:24.299Z,9.18
2019-04-07T05:41:52.560Z,9.18
2019-04-07T05:44:21.086Z,9.51
2019-04-07T05:46:49.913Z,9.40
2019-04-07T05:49:19.097Z,9.33
2019-04-07T05:51:47.991Z,9.61
2019-04-07T05:54:19.010Z,10.17
2019-04-07T05:56:46.430Z,10.25
2019-04-07T05:59:14.789Z,10.11
2019-04-07T06:01:44.560Z,10.44
2019-04-07T06:04:16.862Z,10.61
2019-04-07T06:06:42.510Z,10.81
2019-04-07T06:09:11.288Z,10.88
2019-04-07T06:11:40.039Z,11.07
2019-04-07T06:14:08.286Z,11.41
2019-04-07T06:16:36.316Z,11.53
2019-04-07T06:19:07.858Z,11.63
2019-04-07T06:21:33.993Z,12.09
2019-04-07T06:24:02.559Z,12.13
2019-04-07T06:26:31.879Z,12.21
2019-04-07T06:28:59.873Z,12.56
2019-04-07T06:31:31.353Z,12.58
2019-04-07T06:33:57.983Z,12.71
2019-04-07T06:36:26.788Z,12.77
2019-04-07T06:38:55.278Z,12.74
2019-04-07T06:41:24.279Z,13.02
2019-04-07T06:43:52.832Z,12.74
2019-04-07T06:46:27.660Z,12.90
2019-04-07T06:49:13.998Z,13.03
2019-04-07T06:52:04.364Z,12.88
2019-04-07T06:54:46.033Z,13.22
2019-04-07T06:57:19.450Z,13.20
2019-04-07T07:00:07.075Z,13.19
2019-04-07T07:02:49.910Z,13.44
2019-04-07T07:05:36.945Z,13.21
2019-04-07T07:08:23.658Z,13.47
2019-04-07T07:11:09.775Z,13.60
2019-04-07T07:13:53.019Z,13.85
2019-04-07T07:16:42.393Z,13.61
2019-04-07T07:19:13.001Z,13.82
2019-04-07T07:21:59.682Z,14.12
2019-04-07T07:24:27.957Z,14.26
2019-04-07T07:26:57.946Z,14.19
2019-04-07T07:29:26.921Z,13.97
2019-04-07T07:31:59.790Z,14.12
2019-04-07T07:34:24.847Z,14.30
2019-04-07T07:36:55.106Z,14.43
2019-04-07T07:39:23.165Z,14.39
2019-04-07T07:41:52.187Z,14.24
2019-04-07T07:44:20.364Z,14.51
2019-04-07T07:46:50.407Z,14.76
2019-04-07T07:49:18.292Z,14.92
2019-04-07T07:51:48.532Z,14.79
2019-04-07T07:54:16.248Z,14.75
2019-04-07T07:56:48.613Z,14.73
2019-04-07T07:59:13.759Z,14.85
2019-04-07T08:01:46.194Z,15.42
2019-04-07T08:04:13.964Z,15.89
2019-04-07T08:06:42.376Z,15.87
2019-04-07T08:09:14.924Z,15.64
2019-04-07T08:11:40.447Z,15.64
2019-04-07T08:14:09.918Z,15.51
2019-04-07T08:16:39.068Z,15.49
2019-04-07T08:19:09.374Z,15.66
2019-04-07T08:21:36.977Z,15.83
2019-04-07T08:24:05.825Z,16.26
2019-04-07T08:26:33.876Z,16.30
2019-04-07T08:29:05.723Z,16.37
2019-04-07T08:31:31.673Z,15.77
2019-04-07T08:34:01.238Z,15.92
2019-04-07T08:36:30.215Z,15.89
2019-04-07T08:38:58.497Z,15.96
2019-04-07T08:41:26.747Z,16.32
2019-04-07T08:43:57.489Z,16.13
2019-04-07T08:46:26.961Z,16.18
2019-04-07T08:48:56.908Z,16.18
2019-04-07T08:51:27.440Z,16.04
2019-04-07T08:53:55.575Z,16.46
2019-04-07T08:56:25.752Z,16.41
2019-04-07T08:58:53.358Z,16.02
2019-04-07T09:01:22.056Z,16.32
2019-04-07T09:03:50.797Z,16.37
2019-04-07T09:06:19.567Z,16.49
2019-04-07T09:08:47.885Z,16.51
2019-04-07T09:11:20.037Z,16.34
2019-04-07T09:13:49.970Z,16.21
2019-04-07T09:16:30.155Z,16.32
2019-04-07T09:19:19.369Z,16.32
2019-04-07T09:21:55.869Z,16.65
2019-04-07T09:24:34.781Z,16.78
2019-04-07T09:27:04.798Z,16.70
2019-04-07T09:29:41.100Z,16.49
2019-04-07T09:32:11.903Z,17.15
2019-04-07T09:34:44.657Z,17.37
2019-04-07T09:37:17.381Z,17.41
2019-04-07T09:39:57.811Z,17.68
2019-04-07T09:42:37.971Z,17.21
2019-04-07T09:45:18.504Z,17.09
2019-04-07T09:47:51.420Z,17.57
2019-04-07T09:50:28.606Z,17.60
2019-04-07T09:53:01.791Z,17.45
2019-04-07T09:55:47.272Z,17.64
2019-04-07T09:58:35.828Z,17.71
2019-04-07T10:01:08.006Z,17.62
2019-04-07T10:03:54.290Z,17.63
2019-04-07T10:06:39.784Z,17.81
2019-04-07T10:09:12.753Z,17.50
2019-04-07T10:11:49.528Z,17.18
2019-04-07T10:14:19.617Z,17.42
2019-04-07T10:16:58.273Z,17.56
2019-04-07T10:19:33.907Z,17.24
2019-04-07T10:22:07.316Z,17.37
2019-04-07T10:24:45.959Z,17.39
2019-04-07T10:27:34.067Z,17.69
2019-04-07T10:30:06.788Z,17.49
2019-04-07T10:32:39.596Z,17.38
2019-04-07T10:35:09.829Z,17.19
2019-04-07T10:37:42.812Z,17.25
2019-04-07T10:40:25.527Z,17.22
2019-04-07T10:42:57.310Z,17.54
2019-04-07T10:45:47.100Z,17.58
2019-04-07T10:48:37.841Z,17.69
2019-04-07T10:51:18.421Z,17.90
2019-04-07T10:53:51.663Z,17.98
2019-04-07T10:56:28.851Z,17.76
2019-04-07T10:59:11.656Z,17.85
2019-04-07T11:01:48.029Z,17.75
2019-04-07T11:04:30.681Z,17.67
2019-04-07T11:07:04.231Z,17.89
2019-04-07T11:09:43.909Z,17.67
2019-04-07T11:12:35.742Z,17.86
2019-04-07T11:15:13.731Z,17.79
2019-04-07T11:18:04.111Z,18.09
2019-04-07T11:20:49.685Z,18.17
2019-04-07T11:23:40.312Z,17.80
2019-04-07T11:26:13.811Z,17.59
2019-04-07T11:29:03.571Z,18.05
2019-04-07T11:31:40.503Z,18.39
2019-04-07T11:34:19.977Z,18.05
2019-04-07T11:36:56.134Z,17.99
2019-04-07T11:39:38.458Z,17.86
2019-04-07T11:42:19.708Z,18.06
2019-04-07T11:44:53.103Z,18.63
2019-04-07T11:47:26.787Z,18.20
2019-04-07T11:50:03.846Z,18.34
2019-04-07T11:52:56.278Z,18.39
2019-04-07T11:55:46.491Z,18.43
2019-04-07T11:58:29.568Z,18.59
2019-04-07T12:00:59.266Z,18.71
2019-04-07T12:03:53.405Z,18.66
2019-04-07T12:06:25.492Z,18.45
2019-04-07T12:09:15.197Z,18.66
2019-04-07T12:12:04.781Z,18.58
2019-04-07T12:14:45.532Z,18.47
2019-04-07T12:17:39.578Z,18.60
2019-04-07T12:20:10.876Z,18.79
2019-04-07T12:23:00.406Z,18.15
2019-04-07T12:25:34.452Z,18.51
2019-04-07T12:28:19.092Z,18.66
2019-04-07T12:31:04.280Z,18.47
2019-04-07T12:33:43.914Z,18.45
2019-04-07T12:36:28.803Z,18.52
2019-04-07T12:39:01.843Z,18.31
2019-04-07T12:41:45.919Z,18.45
2019-04-07T12:44:20.100Z,18.81
2019-04-07T12:47:11.441Z,18.92
2019-04-07T12:49:57.270Z,19.07
2019-04-07T12:52:48.496Z,18.79
2019-04-07T12:55:40.457Z,18.42
2019-04-07T12:58:30.163Z,18.50
2019-04-07T13:01:16.251Z,18.33
2019-04-07T13:03:47.494Z,18.61
2019-04-07T13:06:37.592Z,18.58
2019-04-07T13:09:12.000Z,18.51
2019-04-07T13:11:49.453Z,18.43
2019-04-07T13:14:27.065Z,18.76
2019-04-07T13:17:13.763Z,18.55
2019-04-07T13:20:02.448Z,18.45
2019-04-07T13:22:53.107Z,18.47
2019-04-07T13:25:29.211Z,18.45
2019-04-07T13:28:05.312Z,18.53
2019-04-07T13:30:54.956Z,18.54
2019-04-07T13:33:29.550Z,18.42
2019-04-07T13:36:09.311Z,18.43
2019-04-07T13:38:52.740Z,18.60
2019-04-07T13:41:47.315Z,18.54
2019-04-07T13:44:38.837Z,18.49
2019-04-07T13:47:14.541Z,18.59
2019-04-07T13:49:58.003Z,18.36
2019-04-07T13:52:39.752Z,18.45
2019-04-07T13:55:14.062Z,18.35
2019-04-07T13:58:04.469Z,18.35
2019-04-07T14:00:38.090Z,18.47
2019-04-07T14:03:13.447Z,18.35
2019-04-07T14:05:46.568Z,18.38
2019-04-07T14:08:30.964Z,18.37
2019-04-07T14:11:15.900Z,18.29
2019-04-07T14:14:01.320Z,18.25
2019-04-07T14:16:35.426Z,18.43
2019-04-07T14:19:12.372Z,18.29
2019-04-07T14:21:46.212Z,18.33
2019-04-07T14:24:19.797Z,18.33
2019-04-07T14:26:54.198Z,18.34
2019-04-07T14:29:28.430Z,18.29
2019-04-07T14:32:03.120Z,18.14
2019-04-07T14:34:37.743Z,18.24
2019-04-07T14:37:27.867Z,18.31
2019-04-07T14:40:20.398Z,18.23
2019-04-07T14:43:09.743Z,18.33
2019-04-07T14:45:48.461Z,18.19
2019-04-07T14:48:24.662Z,18.18
2019-04-07T14:51:06.834Z,18.12
2019-04-07T14:53:49.557Z,18.03
2019-04-07T14:56:40.693Z,18.08
2019-04-07T14:59:14.815Z,18.04
2019-04-07T15:01:48.259Z,18.01
2019-04-07T15:04:21.470Z,18.06
2019-04-07T15:07:04.109Z,18.09
2019-04-07T15:09:36.031Z,18.02
2019-04-07T15:12:17.956Z,18.07
2019-04-07T15:14:43.776Z,18.09
2019-04-07T15:17:15.293Z,18.01
2019-04-07T15:19:47.399Z,17.92
2019-04-07T15:22:19.625Z,17.89
2019-04-07T15:24:51.597Z,17.92
2019-04-07T15:27:24.982Z,17.83
2019-04-07T15:29:56.671Z,17.81
2019-04-07T15:32:30.001Z,17.70
2019-04-07T15:35:02.338Z,17.68
2019-04-07T15:37:34.704Z,17.63
2019-04-07T15:40:08.268Z,17.60
2019-04-07T15:42:44.134Z,17.54
2019-04-07T15:45:13.735Z,17.42
2019-04-07T15:47:45.180Z,17.44
2019-04-07T15:50:16.937Z,17.32
2019-04-07T15:52:49.831Z,17.28
2019-04-07T15:55:26.366Z,17.22
2019-04-07T15:57:58.386Z,17.10
2019-04-07T16:00:32.385Z,17.19
2019-04-07T16:03:03.214Z,17.17
2019-04-07T16:05:42.239Z,17.10
2019-04-07T16:08:11.612Z,17.03
2019-04-07T16:10:45.197Z,16.99
2019-04-07T16:13:17.401Z,16.91
2019-04-07T16:15:52.828Z,16.75
2019-04-07T16:18:23.174Z,16.56
2019-04-07T16:20:55.026Z,16.58
2019-04-07T16:23:27.280Z,16.58
2019-04-07T16:26:00.581Z,16.33
2019-04-07T16:28:33.038Z,16.21
2019-04-07T16:31:06.516Z,16.15
2019-04-07T16:33:38.793Z,16.13
2019-04-07T16:36:12.827Z,16.27
2019-04-07T16:38:44.406Z,16.28
2019-04-07T16:41:16.736Z,16.33
2019-04-07T16:43:48.215Z,16.11
2019-04-07T16:46:21.342Z,16.22
2019-04-07T16:48:52.243Z,16.12
2019-04-07T16:51:27.897Z,16.18
2019-04-07T16:53:57.490Z,15.97
2019-04-07T16:56:29.456Z,16.25
2019-04-07T16:59:02.480Z,16.01
2019-04-07T17:01:34.750Z,15.78
2019-04-07T17:04:06.416Z,15.79
2019-04-07T17:06:39.058Z,15.76
2019-04-07T17:09:22.357Z,15.76
2019-04-07T17:11:53.548Z,15.90
2019-04-07T17:14:25.745Z,15.99
2019-04-07T17:16:57.989Z,15.86
2019-04-07T17:19:30.095Z,15.55
2019-04-07T17:22:02.958Z,15.29
2019-04-07T17:24:36.297Z,15.14
2019-04-07T17:27:11.391Z,15.05
2019-04-07T17:29:41.674Z,15.12
2019-04-07T17:32:13.385Z,14.97
2019-04-07T17:34:45.068Z,14.81
2019-04-07T17:37:17.401Z,14.79
2019-04-07T17:39:51.953Z,14.69
2019-04-07T17:42:27.279Z,14.72
2019-04-07T17:45:20.415Z,14.73
2019-04-07T17:47:51.742Z,14.61
2019-04-07T17:50:33.795Z,14.60
2019-04-07T17:53:17.441Z,14.47
2019-04-07T17:55:58.960Z,14.31
2019-04-07T17:58:48.099Z,14.25
2019-04-07T18:01:41.023Z,14.30
2019-04-07T18:04:18.839Z,14.21
2019-04-07T18:07:10.161Z,14.48
2019-04-07T18:10:00.619Z,14.63
2019-04-07T18:12:51.547Z,14.53
2019-04-07T18:15:24.751Z,14.46
2019-04-07T18:18:18.810Z,14.35
2019-04-07T18:20:54.065Z,14.36
2019-04-07T18:23:28.948Z,14.32
2019-04-07T18:26:08.075Z,14.32
2019-04-07T18:28:46.484Z,14.22
2019-04-07T18:31:26.361Z,14.06
2019-04-07T18:34:01.860Z,14.06
2019-04-07T18:36:47.516Z,14.10
2019-04-07T18:39:37.090Z,14.04
2019-04-07T18:42:17.440Z,14.28
2019-04-07T18:45:04.134Z,14.06
2019-04-07T18:47:42.769Z,13.99
2019-04-07T18:50:28.758Z,14.07
2019-04-07T18:53:18.909Z,14.08
2019-04-07T18:56:01.665Z,14.17
2019-04-07T18:58:34.963Z,14.13
2019-04-07T19:01:18.180Z,14.03
2019-04-07T19:04:10.066Z,13.98
2019-04-07T19:06:46.422Z,14.05
2019-04-07T19:09:27.566Z,13.99
2019-04-07T19:12:13.137Z,14.04
2019-04-07T19:14:53.533Z,13.98
2019-04-07T19:17:38.585Z,14.01
2019-04-07T19:20:12.736Z,13.84
2019-04-07T19:22:56.028Z,13.57
2019-04-07T19:25:47.761Z,13.61
2019-04-07T19:28:20.928Z,13.65
2019-04-07T19:31:10.795Z,13.54
2019-04-07T19:33:47.465Z,13.46
2019-04-07T19:36:21.387Z,13.39
2019-04-07T19:39:09.931Z,13.32
2019-04-07T19:41:49.373Z,13.27
2019-04-07T19:44:34.083Z,13.37
2019-04-07T19:47:01.566Z,13.35
2019-04-07T19:49:52.984Z,13.21
2019-04-07T19:52:42.990Z,13.17
2019-04-07T19:55:32.782Z,13.26
2019-04-07T19:58:22.455Z,13.20
2019-04-07T20:01:12.796Z,13.20
2019-04-07T20:03:52.297Z,13.01
2019-04-07T20:06:40.629Z,12.99
2019-04-07T20:09:30.210Z,13.14
2019-04-07T20:12:20.569Z,13.06
2019-04-07T20:15:13.580Z,12.94
2019-04-07T20:17:45.266Z,12.89
2019-04-07T20:20:23.728Z,12.86
2019-04-07T20:23:16.073Z,12.70
2019-04-07T20:26:01.608Z,12.74
2019-04-07T20:28:45.067Z,12.73
2019-04-07T20:31:25.607Z,12.68
2019-04-07T20:34:02.220Z,12.56
2019-04-07T20:36:51.655Z,12.40
2019-04-07T20:39:35.312Z,12.36
2019-04-07T20:42:08.762Z,12.38
2019-04-07T20:44:58.380Z,12.26
2019-04-07T20:47:40.345Z,12.13
2019-04-07T20:50:28.091Z,12.09
2019-04-07T20:53:12.739Z,11.93
2019-04-07T20:55:51.933Z,11.86
2019-04-07T20:58:49.756Z,11.73
2019-04-07T21:01:23.171Z,11.62
2019-04-07T21:04:02.492Z,11.76
2019-04-07T21:06:36.713Z,11.72
2019-04-07T21:09:26.315Z,11.66
2019-04-07T21:12:06.116Z,11.57
2019-04-07T21:14:55.052Z,11.84
2019-04-07T21:17:46.517Z,11.71
2019-04-07T21:20:22.321Z,11.65
2019-04-07T21:22:58.427Z,11.56
2019-04-07T21:25:31.891Z,11.54
2019-04-07T21:28:08.977Z,11.73
2019-04-07T21:30:43.758Z,11.73
2019-04-07T21:33:17.458Z,11.86
2019-04-07T21:35:57.183Z,11.89
2019-04-07T21:38:31.271Z,12.03
2019-04-07T21:41:19.955Z,12.12
2019-04-07T21:43:59.702Z,12.02
2019-04-07T21:46:51.789Z,12.09
2019-04-07T21:49:24.302Z,12.18
2019-04-07T21:51:57.781Z,12.07
2019-04-07T21:54:37.282Z,11.90
2019-04-07T21:57:19.298Z,11.81
2019-04-07T21:59:52.497Z,11.77
2019-04-07T22:02:45.489Z,11.69
2019-04-07T22:05:37.073Z,11.67
2019-04-07T22:08:15.530Z,11.57
2019-04-07T22:10:43.380Z,11.62
2019-04-07T22:13:15.487Z,11.57
2019-04-07T22:15:51.879Z,11.73
2019-04-07T22:18:20.192Z,11.58
2019-04-07T22:20:54.454Z,11.59
2019-04-07T22:23:30.697Z,11.64
2019-04-07T22:26:01.403Z,11.56
2019-04-07T22:28:33.345Z,11.74
2019-04-07T22:31:05.618Z,11.69
2019-04-07T22:33:37.299Z,11.67
2019-04-07T22:36:13.250Z,11.67
2019-04-07T22:38:43.216Z,11.60
2019-04-07T22:41:15.565Z,11.59
2019-04-07T22:43:49.543Z,11.58
2019-04-07T22:46:24.531Z,11.56
2019-04-07T22:48:56.974Z,11.63
2019-04-07T22:51:26.958Z,11.52
2019-04-07T22:53:59.247Z,11.53
2019-04-07T22:56:31.079Z,11.40
2019-04-07T22:59:03.638Z,11.41
2019-04-07T23:01:35.658Z,11.37
2019-04-07T23:04:07.175Z,11.45
2019-04-07T23:06:39.034Z,11.42
2019-04-07T23:09:10.692Z,11.39
2019-04-07T23:11:42.345Z,11.39
2019-04-07T23:14:14.337Z,11.39
2019-04-07T23:16:46.452Z,11.39
2019-04-07T23:19:18.536Z,11.33
2019-04-07T23:21:50.192Z,11.35
2019-04-07T23:24:21.268Z,11.32
2019-04-07T23:26:52.788Z,11.23
2019-04-07T23:29:24.550Z,11.20
2019-04-07T23:31:56.098Z,11.15
2019-04-07T23:34:27.747Z,11.11
2019-04-07T23:36:59.726Z,11.11
2019-04-07T23:39:31.267Z,11.10
2019-04-07T23:42:02.826Z,11.08
2019-04-07T23:44:35.196Z,11.00
2019-04-07T23:47:06.897Z,11.04
2019-04-07T23:49:38.583Z,11.06
2019-04-07T23:52:11.101Z,11.00
2019-04-07T23:54:42.728Z,11.03
2019-04-07T23:57:15.563Z,10.92
2019-04-07T23:59:47.204Z,10.76
